createdAt,value
2023-04-18T00:00:49.208Z,98401.81
2023-04-18T00:02:23.201Z,98395.66
2023-04-18T00:03:55.118Z,98400.03
2023-04-18T00:05:28.018Z,98402.91
2023-04-18T00:07:01.050Z,98401.69
2023-04-18T00:08:34.152Z,98390.81
2023-04-18T00:10:06.654Z,98392.66
2023-04-18T00:11:38.284Z,98386.44
2023-04-18T00:13:10.140Z,98386.03
2023-04-18T00:14:41.977Z,98379.03
2023-04-18T00:16:13.855Z,98380.25
2023-04-18T00:17:45.558Z,98387.41
2023-04-18T00:19:18.403Z,98380.81
2023-04-18T00:20:50.166Z,98385.06
2023-04-18T00:22:22.467Z,98386.03
2023-04-18T00:23:54.321Z,98379.94
2023-04-18T00:25:26.394Z,98374.63
2023-04-18T00:26:58.637Z,98366.81
2023-04-18T00:28:30.305Z,98367.63
2023-04-18T00:30:01.996Z,98369.97
2023-04-18T00:31:33.682Z,98364.75
2023-04-18T00:33:05.522Z,98371.22
2023-04-18T00:34:37.301Z,98372.72
2023-04-18T00:36:10.081Z,98360.88
2023-04-18T00:37:41.827Z,98364.75
2023-04-18T00:39:13.966Z,98360.38
2023-04-18T00:40:48.332Z,98363.50
2023-04-18T00:42:21.812Z,98366.41
2023-04-18T00:43:54.214Z,98366.13
2023-04-18T00:45:26.121Z,98364.06
2023-04-18T00:46:58.080Z,98368.03
2023-04-18T00:48:30.877Z,98367.63
2023-04-18T00:50:03.101Z,98366.41
2023-04-18T00:51:35.682Z,98367.88
2023-04-18T00:53:09.368Z,98366.13
2023-04-18T00:54:41.649Z,98365.28
2023-04-18T00:56:13.760Z,98370.66
2023-04-18T00:57:45.970Z,98359.41
2023-04-18T00:59:17.844Z,98360.38
2023-04-18T01:00:50.972Z,98357.75
2023-04-18T01:02:23.002Z,98359.94
2023-04-18T01:03:54.927Z,98364.06
2023-04-18T01:05:27.051Z,98364.06
2023-04-18T01:06:59.250Z,98361.84
2023-04-18T01:08:34.286Z,98359.94
2023-04-18T01:10:06.604Z,98352.38
2023-04-18T01:11:38.204Z,98354.03
2023-04-18T01:13:17.844Z,98358.41
2023-04-18T01:14:49.930Z,98344.00
2023-04-18T01:16:22.233Z,98352.94
2023-04-18T01:17:55.810Z,98346.59
2023-04-18T01:19:28.354Z,98351.97
2023-04-18T01:21:00.648Z,98344.84
2023-04-18T01:22:33.067Z,98341.97
2023-04-18T01:24:08.598Z,98337.44
2023-04-18T01:25:40.681Z,98339.22
2023-04-18T01:27:16.054Z,98337.56
2023-04-18T01:28:47.725Z,98342.50
2023-04-18T01:30:19.349Z,98341.63
2023-04-18T01:31:50.949Z,98336.03
2023-04-18T01:33:22.855Z,98340.84
2023-04-18T01:34:54.595Z,98349.09
2023-04-18T01:36:27.423Z,98339.88
2023-04-18T01:38:00.034Z,98335.09
2023-04-18T01:39:32.166Z,98328.75
2023-04-18T01:41:03.839Z,98330.69
2023-04-18T01:42:35.612Z,98331.47
2023-04-18T01:44:07.312Z,98331.78
2023-04-18T01:45:39.053Z,98328.63
2023-04-18T01:47:10.774Z,98330.38
2023-04-18T01:48:42.910Z,98331.22
2023-04-18T01:50:14.697Z,98330.41
2023-04-18T01:51:47.731Z,98324.09
2023-04-18T01:53:19.395Z,98326.00
2023-04-18T01:54:50.992Z,98334.09
2023-04-18T01:56:23.821Z,98322.31
2023-04-18T01:57:55.506Z,98329.44
2023-04-18T01:59:27.448Z,98323.41
2023-04-18T02:00:59.204Z,98322.06
2023-04-18T02:02:30.899Z,98320.25
2023-04-18T02:04:02.821Z,98314.75
2023-04-18T02:05:36.280Z,98316.13
2023-04-18T02:07:07.874Z,98313.88
2023-04-18T02:08:40.344Z,98319.13
2023-04-18T02:10:12.017Z,98310.34
2023-04-18T02:11:43.969Z,98315.88
2023-04-18T02:13:15.665Z,98311.47
2023-04-18T02:14:51.843Z,98315.16
2023-04-18T02:16:23.475Z,98313.78
2023-04-18T02:17:55.277Z,98317.34
2023-04-18T02:19:30.221Z,98315.16
2023-04-18T02:21:02.049Z,98323.66
2023-04-18T02:22:33.712Z,98318.72
2023-04-18T02:24:05.601Z,98312.25
2023-04-18T02:25:37.211Z,98311.03
2023-04-18T02:27:09.978Z,98314.09
2023-04-18T02:28:41.601Z,98316.97
2023-04-18T02:30:13.495Z,98319.97
2023-04-18T02:31:45.279Z,98320.09
2023-04-18T02:33:19.818Z,98317.53
2023-04-18T02:34:51.418Z,98316.81
2023-04-18T02:36:23.479Z,98320.25
2023-04-18T02:37:55.127Z,98316.25
2023-04-18T02:39:26.768Z,98320.78
2023-04-18T02:40:58.375Z,98311.88
2023-04-18T02:42:31.776Z,98312.97
2023-04-18T02:44:07.102Z,98305.56
2023-04-18T02:45:41.807Z,98308.88
2023-04-18T02:47:14.746Z,98312.59
2023-04-18T02:48:49.294Z,98311.47
2023-04-18T02:50:22.124Z,98309.97
2023-04-18T02:51:57.368Z,98318.88
2023-04-18T02:53:29.049Z,98308.63
2023-04-18T02:55:01.158Z,98308.19
2023-04-18T02:56:40.067Z,98308.88
2023-04-18T02:58:23.976Z,98311.72
2023-04-18T03:00:14.583Z,98309.53
2023-04-18T03:02:04.886Z,98311.06
2023-04-18T03:03:37.953Z,98311.63
2023-04-18T03:05:36.219Z,98304.72
2023-04-18T03:07:10.110Z,98308.81
2023-04-18T03:08:43.887Z,98302.94
2023-04-18T03:10:16.283Z,98306.25
2023-04-18T03:11:47.973Z,98305.44
2023-04-18T03:13:20.660Z,98304.16
2023-04-18T03:14:52.778Z,98305.44
2023-04-18T03:16:25.809Z,98302.97
2023-04-18T03:17:58.451Z,98298.16
2023-04-18T03:19:32.895Z,98298.16
2023-04-18T03:21:11.567Z,98303.28
2023-04-18T03:22:43.614Z,98306.41
2023-04-18T03:24:16.054Z,98299.69
2023-04-18T03:25:51.736Z,98297.38
2023-04-18T03:27:24.049Z,98304.47
2023-04-18T03:28:55.797Z,98306.28
2023-04-18T03:30:27.528Z,98305.06
2023-04-18T03:32:01.661Z,98307.94
2023-04-18T03:33:33.571Z,98301.50
2023-04-18T03:35:12.632Z,98307.09
2023-04-18T03:36:46.552Z,98313.44
2023-04-18T03:38:19.368Z,98302.19
2023-04-18T03:39:51.073Z,98304.81
2023-04-18T03:41:23.888Z,98306.84
2023-04-18T03:42:55.424Z,98314.22
2023-04-18T03:44:27.138Z,98309.47
2023-04-18T03:45:58.905Z,98311.41
2023-04-18T03:47:31.919Z,98306.47
2023-04-18T03:49:04.341Z,98300.16
2023-04-18T03:50:35.984Z,98305.50
2023-04-18T03:52:09.782Z,98305.50
2023-04-18T03:53:41.424Z,98305.19
2023-04-18T03:55:13.529Z,98303.84
2023-04-18T03:56:45.613Z,98301.38
2023-04-18T03:58:23.575Z,98296.53
2023-04-18T03:59:55.783Z,98303.28
2023-04-18T04:01:27.460Z,98306.56
2023-04-18T04:02:59.512Z,98294.75
2023-04-18T04:04:31.419Z,98297.38
2023-04-18T04:06:04.119Z,98294.09
2023-04-18T04:07:35.902Z,98297.53
2023-04-18T04:09:08.216Z,98304.13
2023-04-18T04:10:39.846Z,98303.97
2023-04-18T04:12:11.635Z,98309.19
2023-04-18T04:13:43.226Z,98315.50
2023-04-18T04:15:16.154Z,98314.16
2023-04-18T04:16:54.585Z,98314.03
2023-04-18T04:18:31.183Z,98314.84
2023-04-18T04:20:05.573Z,98316.34
2023-04-18T04:21:37.407Z,98313.59
2023-04-18T04:23:10.411Z,98308.94
2023-04-18T04:24:44.216Z,98309.34
2023-04-18T04:26:18.351Z,98313.06
2023-04-18T04:27:58.054Z,98310.72
2023-04-18T04:29:29.816Z,98309.06
2023-04-18T04:31:06.407Z,98308.94
2023-04-18T04:32:38.968Z,98306.63
2023-04-18T04:34:10.678Z,98309.34
2023-04-18T04:35:43.317Z,98314.56
2023-04-18T04:37:15.141Z,98311.13
2023-04-18T04:38:58.967Z,98304.28
2023-04-18T04:40:39.511Z,98303.03
2023-04-18T04:42:16.327Z,98305.75
2023-04-18T04:43:57.765Z,98296.72
2023-04-18T04:45:33.744Z,98297.69
2023-04-18T04:47:05.545Z,98300.72
2023-04-18T04:48:40.755Z,98299.19
2023-04-18T04:50:15.641Z,98300.81
2023-04-18T04:51:47.302Z,98305.75
2023-04-18T04:53:19.105Z,98300.16
2023-04-18T04:54:51.531Z,98298.06
2023-04-18T04:56:24.500Z,98299.72
2023-04-18T04:57:56.374Z,98305.19
2023-04-18T05:00:05.460Z,98306.31
2023-04-18T05:01:37.293Z,98307.41
2023-04-18T05:03:10.890Z,98315.81
2023-04-18T05:04:42.812Z,98312.38
2023-04-18T05:06:15.507Z,98309.06
2023-04-18T05:07:47.334Z,98306.72
2023-04-18T05:09:19.005Z,98301.50
2023-04-18T05:10:51.113Z,98314.16
2023-04-18T05:12:22.764Z,98312.94
2023-04-18T05:13:54.710Z,98313.63
2023-04-18T05:15:26.316Z,98313.63
2023-04-18T05:16:58.174Z,98321.28
2023-04-18T05:18:29.865Z,98322.63
2023-04-18T05:20:01.547Z,98325.00
2023-04-18T05:21:33.424Z,98328.28
2023-04-18T05:23:04.997Z,98317.97
2023-04-18T05:24:36.609Z,98325.41
2023-04-18T05:26:08.455Z,98325.41
2023-04-18T05:27:40.627Z,98319.78
2023-04-18T05:29:12.281Z,98329.13
2023-04-18T05:30:45.097Z,98329.25
2023-04-18T05:32:16.731Z,98328.16
2023-04-18T05:33:48.306Z,98329.38
2023-04-18T05:35:19.944Z,98324.72
2023-04-18T05:36:51.910Z,98322.63
2023-04-18T05:38:23.735Z,98321.84
2023-04-18T05:39:55.420Z,98332.09
2023-04-18T05:41:27.088Z,98328.28
2023-04-18T05:42:58.763Z,98326.75
2023-04-18T05:44:30.450Z,98325.38
2023-04-18T05:46:02.112Z,98328.41
2023-04-18T05:47:33.979Z,98325.81
2023-04-18T05:49:05.803Z,98320.72
2023-04-18T05:50:37.395Z,98317.97
2023-04-18T05:52:09.461Z,98314.66
2023-04-18T05:53:41.183Z,98314.94
2023-04-18T05:55:12.784Z,98321.41
2023-04-18T05:56:45.107Z,98324.41
2023-04-18T05:58:16.892Z,98331.69
2023-04-18T05:59:48.996Z,98334.97
2023-04-18T06:01:21.594Z,98335.94
2023-04-18T06:02:53.692Z,98330.97
2023-04-18T06:04:26.758Z,98334.84
2023-04-18T06:05:59.877Z,98334.91
2023-04-18T06:07:32.713Z,98336.03
2023-04-18T06:09:05.971Z,98339.63
2023-04-18T06:10:39.379Z,98348.41
2023-04-18T06:12:11.573Z,98338.94
2023-04-18T06:13:43.431Z,98342.66
2023-04-18T06:15:15.206Z,98349.75
2023-04-18T06:16:47.602Z,98353.38
2023-04-18T06:18:20.270Z,98348.53
2023-04-18T06:19:53.212Z,98353.19
2023-04-18T06:21:25.843Z,98353.06
2023-04-18T06:22:57.917Z,98357.88
2023-04-18T06:24:31.174Z,98362.00
2023-04-18T06:26:03.499Z,98359.66
2023-04-18T06:27:36.476Z,98356.34
2023-04-18T06:29:08.165Z,98361.84
2023-04-18T06:30:40.640Z,98356.22
2023-04-18T06:32:13.270Z,98353.75
2023-04-18T06:33:45.549Z,98357.97
2023-04-18T06:35:17.929Z,98353.03
2023-04-18T06:36:50.162Z,98350.03
2023-04-18T06:38:22.777Z,98354.13
2023-04-18T06:39:55.121Z,98352.09
2023-04-18T06:41:27.017Z,98345.47
2023-04-18T06:42:58.911Z,98351.78
2023-04-18T06:44:32.568Z,98347.38
2023-04-18T06:46:05.534Z,98351.31
2023-04-18T06:47:38.612Z,98346.81
2023-04-18T06:49:10.482Z,98348.06
2023-04-18T06:50:42.674Z,98356.88
2023-04-18T06:52:14.556Z,98350.81
2023-04-18T06:53:47.793Z,98347.94
2023-04-18T06:55:20.110Z,98357.81
2023-04-18T06:56:53.640Z,98356.88
2023-04-18T06:58:25.406Z,98356.44
2023-04-18T06:59:57.620Z,98354.22
2023-04-18T07:01:32.112Z,98358.31
2023-04-18T07:03:11.358Z,98357.25
2023-04-18T07:04:43.460Z,98360.69
2023-04-18T07:06:16.755Z,98361.25
2023-04-18T07:07:50.129Z,98359.16
2023-04-18T07:09:22.842Z,98353.66
2023-04-18T07:10:54.805Z,98364.34
2023-04-18T07:12:27.755Z,98359.25
2023-04-18T07:14:00.845Z,98362.44
2023-04-18T07:15:36.252Z,98361.53
2023-04-18T07:17:08.639Z,98365.09
2023-04-18T07:18:40.635Z,98366.50
2023-04-18T07:20:14.338Z,98361.34
2023-04-18T07:21:46.906Z,98361.34
2023-04-18T07:23:19.640Z,98365.50
2023-04-18T07:24:53.048Z,98367.28
2023-04-18T07:26:26.757Z,98367.88
2023-04-18T07:28:00.033Z,98361.94
2023-04-18T07:29:32.549Z,98369.84
2023-04-18T07:31:04.814Z,98370.38
2023-04-18T07:32:37.209Z,98366.34
2023-04-18T07:34:10.073Z,98372.53
2023-04-18T07:35:43.008Z,98368.22
2023-04-18T07:37:16.694Z,98369.63
2023-04-18T07:38:48.833Z,98366.72
2023-04-18T07:40:21.268Z,98374.06
2023-04-18T07:41:53.606Z,98369.50
2023-04-18T07:43:25.919Z,98373.78
2023-04-18T07:44:59.117Z,98370.47
2023-04-18T07:46:32.812Z,98369.94
2023-04-18T07:48:06.785Z,98373.69
2023-04-18T07:49:39.010Z,98376.28
2023-04-18T07:51:11.731Z,98372.94
2023-04-18T07:52:43.563Z,98374.94
2023-04-18T07:54:15.773Z,98379.53
2023-04-18T07:55:47.643Z,98375.03
2023-04-18T07:57:19.462Z,98382.59
2023-04-18T07:58:51.497Z,98374.44
2023-04-18T08:00:24.421Z,98379.72
2023-04-18T08:01:56.389Z,98388.13
2023-04-18T08:03:28.927Z,98384.81
2023-04-18T08:05:01.361Z,98382.72
2023-04-18T08:06:35.152Z,98388.94
2023-04-18T08:08:10.132Z,98397.16
2023-04-18T08:09:42.210Z,98398.34
2023-04-18T08:11:14.676Z,98389.97
2023-04-18T08:12:47.119Z,98395.41
2023-04-18T08:14:19.203Z,98391.47
2023-04-18T08:15:51.346Z,98390.88
2023-04-18T08:17:24.135Z,98399.53
2023-04-18T08:18:55.908Z,98391.84
2023-04-18T08:20:27.979Z,98390.56
2023-04-18T08:22:11.025Z,98398.50
2023-04-18T08:23:43.458Z,98402.34
2023-04-18T08:25:17.427Z,98398.50
2023-04-18T08:26:50.022Z,98399.81
2023-04-18T08:28:22.380Z,98400.88
2023-04-18T08:29:56.331Z,98403.72
2023-04-18T08:31:28.744Z,98402.44
2023-04-18T08:33:01.629Z,98399.97
2023-04-18T08:34:36.853Z,98405.88
2023-04-18T08:36:10.798Z,98408.59
2023-04-18T08:37:44.036Z,98404.03
2023-04-18T08:39:17.137Z,98397.16
2023-04-18T08:40:49.736Z,98402.97
2023-04-18T08:42:24.229Z,98410.19
2023-04-18T08:43:57.383Z,98410.31
2023-04-18T08:45:31.699Z,98403.66
2023-04-18T08:47:04.132Z,98410.31
2023-04-18T08:48:37.003Z,98402.00
2023-04-18T08:50:10.830Z,98417.78
2023-04-18T08:51:44.729Z,98414.00
2023-04-18T08:53:18.011Z,98414.88
2023-04-18T08:54:51.365Z,98421.47
2023-04-18T08:56:26.970Z,98416.28
2023-04-18T08:57:59.973Z,98418.09
2023-04-18T08:59:32.508Z,98414.66
2023-04-18T09:01:04.296Z,98410.00
2023-04-18T09:02:39.205Z,98416.88
2023-04-18T09:04:11.352Z,98419.88
2023-04-18T09:05:43.399Z,98414.59
2023-04-18T09:07:16.844Z,98414.00
2023-04-18T09:08:59.239Z,98409.78
2023-04-18T09:10:33.704Z,98413.75
2023-04-18T09:12:10.117Z,98408.38
2023-04-18T09:13:47.451Z,98413.34
2023-04-18T09:15:23.834Z,98406.78
2023-04-18T09:16:56.390Z,98413.13
2023-04-18T09:18:28.145Z,98413.72
2023-04-18T09:20:01.641Z,98407.34
2023-04-18T09:21:33.333Z,98406.88
2023-04-18T09:23:11.498Z,98406.28
2023-04-18T09:24:53.700Z,98403.13
2023-04-18T09:26:35.855Z,98410.34
2023-04-18T09:28:24.253Z,98408.53
2023-04-18T09:29:58.000Z,98410.59
2023-04-18T09:31:30.388Z,98410.66
2023-04-18T09:33:06.910Z,98409.19
2023-04-18T09:34:42.518Z,98409.69
2023-04-18T09:36:21.581Z,98408.75
2023-04-18T09:37:53.403Z,98418.22
2023-04-18T09:39:28.647Z,98411.88
2023-04-18T09:41:16.384Z,98415.72
2023-04-18T09:42:50.780Z,98410.72
2023-04-18T09:44:22.433Z,98411.22
2023-04-18T09:45:54.281Z,98417.81
2023-04-18T09:47:29.332Z,98406.63
2023-04-18T09:49:02.359Z,98398.06
2023-04-18T09:50:35.789Z,98405.72
2023-04-18T09:52:09.005Z,98397.28
2023-04-18T09:53:48.365Z,98399.00
2023-04-18T09:55:21.719Z,98399.59
2023-04-18T09:56:56.036Z,98396.06
2023-04-18T09:58:33.560Z,98392.56
2023-04-18T10:00:22.428Z,98399.81
2023-04-18T10:01:57.209Z,98388.56
2023-04-18T10:03:35.820Z,98392.59
2023-04-18T10:05:09.696Z,98393.44
2023-04-18T10:06:46.844Z,98396.41
2023-04-18T10:08:19.661Z,98393.13
2023-04-18T10:09:53.950Z,98401.00
2023-04-18T10:11:27.705Z,98383.25
2023-04-18T10:13:02.183Z,98390.28
2023-04-18T10:14:35.997Z,98394.84
2023-04-18T10:16:08.886Z,98388.69
2023-04-18T10:18:00.221Z,98378.13
2023-04-18T10:19:39.557Z,98384.38
2023-04-18T10:21:12.752Z,98380.16
2023-04-18T10:22:47.997Z,98384.19
2023-04-18T10:24:49.007Z,98392.66
2023-04-18T10:26:21.927Z,98391.22
2023-04-18T10:27:58.263Z,98390.16
2023-04-18T10:29:50.708Z,98393.38
2023-04-18T10:31:29.742Z,98388.63
2023-04-18T10:33:33.832Z,98391.91
2023-04-18T10:35:08.209Z,98381.66
2023-04-18T10:37:04.461Z,98383.09
2023-04-18T10:38:45.463Z,98401.34
2023-04-18T10:40:32.477Z,98405.53
2023-04-18T10:42:05.083Z,98381.22
2023-04-18T10:44:09.114Z,98376.41
2023-04-18T10:45:41.177Z,98373.06
2023-04-18T10:47:12.789Z,98378.25
2023-04-18T10:48:44.524Z,98375.91
2023-04-18T10:50:17.005Z,98387.91
2023-04-18T10:51:51.153Z,98380.28
2023-04-18T10:53:22.794Z,98385.56
2023-04-18T10:54:58.978Z,98387.81
2023-04-18T10:56:31.053Z,98382.75
2023-04-18T10:58:03.320Z,98382.72
2023-04-18T10:59:38.607Z,98384.09
2023-04-18T11:01:14.485Z,98387.94
2023-04-18T11:02:57.574Z,98376.88
2023-04-18T11:04:30.093Z,98375.25
2023-04-18T11:06:03.067Z,98372.44
2023-04-18T11:07:46.210Z,98378.00
2023-04-18T11:09:17.904Z,98378.34
2023-04-18T11:11:09.655Z,98374.56
2023-04-18T11:12:42.132Z,98375.75
2023-04-18T11:14:14.559Z,98377.72
2023-04-18T11:15:46.567Z,98361.25
2023-04-18T11:17:22.372Z,98364.78
2023-04-18T11:18:54.940Z,98366.69
2023-04-18T11:20:27.249Z,98370.81
2023-04-18T11:22:01.189Z,98367.50
2023-04-18T11:23:33.097Z,98361.22
2023-04-18T11:25:08.590Z,98362.53
2023-04-18T11:26:40.784Z,98363.53
2023-04-18T11:28:16.822Z,98369.16
2023-04-18T11:29:53.958Z,98370.56
2023-04-18T11:31:26.528Z,98366.00
2023-04-18T11:32:59.695Z,98365.94
2023-04-18T11:34:31.610Z,98363.78
2023-04-18T11:36:03.638Z,98362.34
2023-04-18T11:37:37.742Z,98367.94
2023-04-18T11:39:10.687Z,98366.22
2023-04-18T11:40:49.959Z,98363.22
2023-04-18T11:42:29.463Z,98359.13
2023-04-18T11:44:06.349Z,98368.06
2023-04-18T11:45:38.964Z,98370.31
2023-04-18T11:47:29.740Z,98364.13
2023-04-18T11:49:02.131Z,98368.72
2023-04-18T11:50:36.582Z,98372.13
2023-04-18T11:52:12.785Z,98371.84
2023-04-18T11:53:44.684Z,98370.59
2023-04-18T11:55:24.004Z,98376.50
2023-04-18T11:56:56.679Z,98376.69
2023-04-18T11:58:35.374Z,98371.22
2023-04-18T12:00:09.180Z,98379.19
2023-04-18T12:01:41.344Z,98379.31
2023-04-18T12:03:19.019Z,98376.66
2023-04-18T12:04:56.892Z,98373.47
2023-04-18T12:06:45.631Z,98379.78
2023-04-18T12:08:21.067Z,98379.31
2023-04-18T12:09:52.969Z,98367.53
2023-04-18T12:11:26.510Z,98359.25
2023-04-18T12:13:00.616Z,98361.59
2023-04-18T12:14:36.812Z,98362.47
2023-04-18T12:16:09.315Z,98367.00
2023-04-18T12:17:45.701Z,98364.34
2023-04-18T12:19:21.152Z,98368.47
2023-04-18T12:20:57.492Z,98361.41
2023-04-18T12:22:52.011Z,98366.09
2023-04-18T12:24:25.970Z,98363.25
2023-04-18T12:26:07.759Z,98369.28
2023-04-18T12:27:57.053Z,98362.53
2023-04-18T12:29:30.710Z,98359.00
2023-04-18T12:31:07.224Z,98364.38
2023-04-18T12:32:39.632Z,98364.13
2023-04-18T12:34:12.831Z,98355.78
2023-04-18T12:35:46.446Z,98357.81
2023-04-18T12:37:26.134Z,98351.09
2023-04-18T12:38:59.148Z,98355.56
2023-04-18T12:40:33.458Z,98358.66
2023-04-18T12:42:06.596Z,98354.09
2023-04-18T12:43:39.436Z,98350.19
2023-04-18T12:45:14.208Z,98354.97
2023-04-18T12:46:46.512Z,98354.44
2023-04-18T12:48:18.875Z,98354.41
2023-04-18T12:49:51.909Z,98354.44
2023-04-18T12:51:27.523Z,98353.25
2023-04-18T12:53:02.318Z,98355.97
2023-04-18T12:54:37.902Z,98359.44
2023-04-18T12:56:11.646Z,98354.72
2023-04-18T12:57:44.028Z,98351.06
2023-04-18T12:59:16.326Z,98357.63
2023-04-18T13:00:48.189Z,98359.16
2023-04-18T13:02:20.079Z,98364.28
2023-04-18T13:04:03.907Z,98361.09
2023-04-18T13:05:43.407Z,98360.00
2023-04-18T13:07:15.332Z,98361.44
2023-04-18T13:08:47.506Z,98363.72
2023-04-18T13:10:21.321Z,98358.81
2023-04-18T13:11:52.998Z,98367.28
2023-04-18T13:13:24.824Z,98352.81
2023-04-18T13:14:57.538Z,98369.97
2023-04-18T13:16:29.119Z,98351.63
2023-04-18T13:18:04.935Z,98364.28
2023-04-18T13:19:37.108Z,98352.41
2023-04-18T13:21:08.857Z,98357.22
2023-04-18T13:22:41.876Z,98360.72
2023-04-18T13:24:14.787Z,98360.34
2023-04-18T13:25:48.211Z,98357.16
2023-04-18T13:27:21.701Z,98360.34
2023-04-18T13:28:56.217Z,98355.22
2023-04-18T13:30:29.210Z,98357.09
2023-04-18T13:32:01.870Z,98357.34
2023-04-18T13:33:34.312Z,98354.31
2023-04-18T13:35:09.169Z,98358.41
2023-04-18T13:36:40.897Z,98351.56
2023-04-18T13:38:12.903Z,98350.84
2023-04-18T13:39:44.523Z,98353.59
2023-04-18T13:41:16.540Z,98361.19
2023-04-18T13:42:48.463Z,98357.56
2023-04-18T13:44:20.088Z,98350.16
2023-04-18T13:45:54.185Z,98351.84
2023-04-18T13:47:26.330Z,98348.28
2023-04-18T13:48:58.151Z,98347.94
2023-04-18T13:50:29.829Z,98356.25
2023-04-18T13:52:01.469Z,98348.84
2023-04-18T13:53:33.177Z,98363.03
2023-04-18T13:55:05.277Z,98359.56
2023-04-18T13:56:36.965Z,98359.31
2023-04-18T13:58:09.811Z,98363.94
2023-04-18T13:59:41.858Z,98355.09
2023-04-18T14:01:14.151Z,98356.63
2023-04-18T14:02:45.888Z,98354.72
2023-04-18T14:04:17.999Z,98354.66
2023-04-18T14:05:49.806Z,98360.59
2023-04-18T14:07:21.437Z,98358.28
2023-04-18T14:08:53.536Z,98361.63
2023-04-18T14:10:25.091Z,98354.66
2023-04-18T14:11:58.220Z,98358.72
2023-04-18T14:13:30.065Z,98360.81
2023-04-18T14:15:01.713Z,98370.47
2023-04-18T14:16:33.760Z,98364.34
2023-04-18T14:18:05.816Z,98367.16
2023-04-18T14:19:37.499Z,98363.16
2023-04-18T14:21:09.093Z,98360.16
2023-04-18T14:22:40.723Z,98362.44
2023-04-18T14:24:12.481Z,98354.06
2023-04-18T14:25:44.134Z,98364.94
2023-04-18T14:27:15.756Z,98356.59
2023-04-18T14:28:47.701Z,98363.72
2023-04-18T14:30:19.319Z,98355.03
2023-04-18T14:31:50.906Z,98363.56
2023-04-18T14:33:22.886Z,98357.47
2023-04-18T14:34:54.453Z,98357.22
2023-04-18T14:36:27.212Z,98359.69
2023-04-18T14:37:58.891Z,98354.22
2023-04-18T14:39:31.118Z,98355.31
2023-04-18T14:41:06.732Z,98356.72
2023-04-18T14:42:38.815Z,98361.41
2023-04-18T14:44:10.612Z,98361.19
2023-04-18T14:45:42.274Z,98355.06
2023-04-18T14:47:13.908Z,98356.47
2023-04-18T14:48:49.039Z,98356.06
2023-04-18T14:50:20.810Z,98355.97
2023-04-18T14:51:52.420Z,98361.72
2023-04-18T14:53:24.802Z,98358.53
2023-04-18T14:54:56.475Z,98359.84
2023-04-18T14:56:28.091Z,98365.28
2023-04-18T14:58:00.421Z,98364.91
2023-04-18T14:59:32.105Z,98359.94
2023-04-18T15:01:04.470Z,98361.63
2023-04-18T15:02:36.403Z,98359.44
2023-04-18T15:04:08.621Z,98364.53
2023-04-18T15:05:43.116Z,98355.25
2023-04-18T15:07:15.520Z,98366.81
2023-04-18T15:08:47.291Z,98365.69
2023-04-18T15:10:22.265Z,98367.81
2023-04-18T15:11:54.298Z,98368.44
2023-04-18T15:13:28.070Z,98364.63
2023-04-18T15:15:01.557Z,98363.88
2023-04-18T15:16:35.280Z,98364.88
2023-04-18T15:18:08.318Z,98371.97
2023-04-18T15:19:40.256Z,98375.44
2023-04-18T15:21:11.916Z,98371.63
2023-04-18T15:22:43.576Z,98372.09
2023-04-18T15:24:16.130Z,98367.00
2023-04-18T15:25:48.116Z,98375.56
2023-04-18T15:27:19.684Z,98370.63
2023-04-18T15:28:53.960Z,98368.16
2023-04-18T15:30:26.020Z,98369.25
2023-04-18T15:31:57.600Z,98364.88
2023-04-18T15:33:29.486Z,98373.53
2023-04-18T15:35:01.856Z,98373.81
2023-04-18T15:36:36.515Z,98366.41
2023-04-18T15:38:08.494Z,98372.69
2023-04-18T15:39:40.130Z,98377.44
2023-04-18T15:41:11.867Z,98372.25
2023-04-18T15:42:44.516Z,98380.16
2023-04-18T15:44:16.212Z,98379.06
2023-04-18T15:45:48.144Z,98378.88
2023-04-18T15:47:19.808Z,98370.31
2023-04-18T15:48:52.208Z,98376.50
2023-04-18T15:50:24.367Z,98375.84
2023-04-18T15:51:56.820Z,98378.28
2023-04-18T15:53:28.605Z,98383.84
2023-04-18T15:55:01.395Z,98377.31
2023-04-18T15:56:33.979Z,98374.22
2023-04-18T15:58:06.727Z,98375.41
2023-04-18T15:59:38.527Z,98375.00
2023-04-18T16:01:13.235Z,98382.13
2023-04-18T16:02:46.242Z,98379.47
2023-04-18T16:04:18.182Z,98377.81
2023-04-18T16:05:50.878Z,98371.94
2023-04-18T16:07:22.469Z,98378.16
2023-04-18T16:08:54.385Z,98376.94
2023-04-18T16:10:26.373Z,98382.06
2023-04-18T16:11:59.700Z,98380.78
2023-04-18T16:13:32.046Z,98381.47
2023-04-18T16:15:08.887Z,98380.56
2023-04-18T16:16:40.979Z,98384.50
2023-04-18T16:18:14.096Z,98381.75
2023-04-18T16:19:46.655Z,98386.19
2023-04-18T16:21:18.880Z,98382.91
2023-04-18T16:22:51.580Z,98384.78
2023-04-18T16:24:25.926Z,98380.72
2023-04-18T16:25:57.891Z,98386.59
2023-04-18T16:27:30.343Z,98374.88
2023-04-18T16:29:02.065Z,98381.44
2023-04-18T16:30:33.707Z,98390.78
2023-04-18T16:32:06.833Z,98380.25
2023-04-18T16:33:38.671Z,98385.56
2023-04-18T16:35:10.735Z,98387.59
2023-04-18T16:36:42.370Z,98384.19
2023-04-18T16:38:14.685Z,98383.06
2023-04-18T16:39:47.426Z,98384.06
2023-04-18T16:41:19.072Z,98390.97
2023-04-18T16:42:52.891Z,98382.53
2023-04-18T16:44:24.734Z,98378.38
2023-04-18T16:45:57.697Z,98390.91
2023-04-18T16:47:30.111Z,98387.00
2023-04-18T16:49:02.041Z,98384.53
2023-04-18T16:50:33.638Z,98386.69
2023-04-18T16:52:05.354Z,98386.38
2023-04-18T16:53:36.968Z,98391.19
2023-04-18T16:55:09.429Z,98389.72
2023-04-18T16:56:44.553Z,98388.28
2023-04-18T16:58:16.834Z,98392.03
2023-04-18T16:59:48.489Z,98383.03
2023-04-18T17:01:20.654Z,98386.91
2023-04-18T17:02:53.028Z,98386.59
2023-04-18T17:04:26.965Z,98384.50
2023-04-18T17:05:58.858Z,98393.88
2023-04-18T17:07:30.923Z,98397.34
2023-04-18T17:09:06.327Z,98390.41
2023-04-18T17:10:40.266Z,98397.53
2023-04-18T17:12:13.493Z,98395.22
2023-04-18T17:13:47.413Z,98397.72
2023-04-18T17:15:20.003Z,98399.41
2023-04-18T17:16:53.744Z,98397.75
2023-04-18T17:18:25.947Z,98398.88
2023-04-18T17:19:58.801Z,98397.56
2023-04-18T17:21:32.047Z,98409.09
2023-04-18T17:23:03.944Z,98400.38
2023-04-18T17:24:35.534Z,98399.38
2023-04-18T17:26:07.524Z,98404.50
2023-04-18T17:27:41.021Z,98408.25
2023-04-18T17:29:12.882Z,98402.03
2023-04-18T17:30:44.748Z,98397.09
2023-04-18T17:32:16.754Z,98403.56
2023-04-18T17:33:50.843Z,98400.13
2023-04-18T17:35:23.154Z,98402.91
2023-04-18T17:36:54.955Z,98406.53
2023-04-18T17:38:26.614Z,98403.94
2023-04-18T17:40:00.676Z,98402.50
2023-04-18T17:41:37.899Z,98405.94
2023-04-18T17:43:11.818Z,98411.88
2023-04-18T17:44:43.779Z,98416.97
2023-04-18T17:46:16.079Z,98415.81
2023-04-18T17:47:49.545Z,98417.81
2023-04-18T17:49:21.753Z,98423.38
2023-04-18T17:50:53.456Z,98428.81
2023-04-18T17:52:25.514Z,98422.91
2023-04-18T17:53:57.121Z,98425.19
2023-04-18T17:55:29.245Z,98425.50
2023-04-18T17:57:02.470Z,98435.19
2023-04-18T17:58:35.501Z,98428.16
2023-04-18T18:00:11.646Z,98432.91
2023-04-18T18:01:46.299Z,98439.81
2023-04-18T18:03:19.164Z,98433.22
2023-04-18T18:04:51.582Z,98437.84
2023-04-18T18:06:23.250Z,98432.91
2023-04-18T18:07:56.229Z,98436.38
2023-04-18T18:09:28.328Z,98435.53
2023-04-18T18:11:01.701Z,98437.84
2023-04-18T18:12:35.830Z,98440.28
2023-04-18T18:14:08.075Z,98437.03
2023-04-18T18:15:40.437Z,98443.44
2023-04-18T18:17:12.361Z,98438.34
2023-04-18T18:18:44.561Z,98437.00
2023-04-18T18:20:17.336Z,98442.91